sensor_id;sensor_type;location;lat;lon;timestamp;P1;durP1;ratioP1;P2;durP2;ratioP2
75930;SDS011;64609;47.052;15.462;2023-04-03T00:01:35;2.80;;;2.08;;
75930;SDS011;64609;47.052;15.462;2023-04-03T00:04:03;2.97;;;2.30;;
75930;SDS011;64609;47.052;15.462;2023-04-03T00:06:29;4.60;;;2.15;;
75930;SDS011;64609;47.052;15.462;2023-04-03T00:08:55;3.08;;;2.08;;
75930;SDS011;64609;47.052;15.462;2023-04-03T00:11:20;3.35;;;2.17;;
75930;SDS011;64609;47.052;15.462;2023-04-03T00:13:46;1.85;;;1.75;;
75930;SDS011;64609;47.052;15.462;2023-04-03T00:16:12;2.88;;;1.88;;
75930;SDS011;64609;47.052;15.462;2023-04-03T00:18:38;2.90;;;2.10;;
75930;SDS011;64609;47.052;15.462;2023-04-03T00:21:05;3.35;;;2.30;;
75930;SDS011;64609;47.052;15.462;2023-04-03T00:23:31;4.25;;;2.42;;
75930;SDS011;64609;47.052;15.462;2023-04-03T00:25:58;3.58;;;2.35;;
75930;SDS011;64609;47.052;15.462;2023-04-03T00:28:24;4.60;;;2.78;;
75930;SDS011;64609;47.052;15.462;2023-04-03T00:30:50;3.25;;;2.38;;
75930;SDS011;64609;47.052;15.462;2023-04-03T00:33:16;3.08;;;2.10;;
75930;SDS011;64609;47.052;15.462;2023-04-03T00:35:42;3.33;;;2.10;;
75930;SDS011;64609;47.052;15.462;2023-04-03T00:38:08;3.83;;;2.40;;
75930;SDS011;64609;47.052;15.462;2023-04-03T00:40:38;3.92;;;2.30;;
75930;SDS011;64609;47.052;15.462;2023-04-03T00:43:11;3.45;;;2.00;;
75930;SDS011;64609;47.052;15.462;2023-04-03T00:45:41;2.50;;;2.08;;
75930;SDS011;64609;47.052;15.462;2023-04-03T00:48:21;3.13;;;2.00;;
75930;SDS011;64609;47.052;15.462;2023-04-03T00:50:53;3.67;;;2.30;;
75930;SDS011;64609;47.052;15.462;2023-04-03T00:53:22;5.90;;;2.20;;
75930;SDS011;64609;47.052;15.462;2023-04-03T00:55:57;2.58;;;1.90;;
75930;SDS011;64609;47.052;15.462;2023-04-03T00:58:33;4.15;;;2.42;;
75930;SDS011;64609;47.052;15.462;2023-04-03T01:01:03;2.80;;;1.98;;
75930;SDS011;64609;47.052;15.462;2023-04-03T01:03:32;2.50;;;2.10;;
75930;SDS011;64609;47.052;15.462;2023-04-03T01:05:57;2.70;;;2.28;;
75930;SDS011;64609;47.052;15.462;2023-04-03T01:08:23;3.80;;;2.33;;
75930;SDS011;64609;47.052;15.462;2023-04-03T01:10:49;2.38;;;1.90;;
75930;SDS011;64609;47.052;15.462;2023-04-03T01:13:33;4.13;;;2.15;;
75930;SDS011;64609;47.052;15.462;2023-04-03T01:16:03;3.08;;;2.25;;
75930;SDS011;64609;47.052;15.462;2023-04-03T01:18:30;2.90;;;2.28;;
75930;SDS011;64609;47.052;15.462;2023-04-03T01:23:57;2.65;;;2.40;;
75930;SDS011;64609;47.052;15.462;2023-04-03T01:26:37;2.15;;;1.92;;
75930;SDS011;64609;47.052;15.462;2023-04-03T01:29:04;2.75;;;2.08;;
75930;SDS011;64609;47.052;15.462;2023-04-03T01:33:55;2.92;;;1.98;;
75930;SDS011;64609;47.052;15.462;2023-04-03T01:36:22;2.80;;;2.30;;
75930;SDS011;64609;47.052;15.462;2023-04-03T01:38:51;3.28;;;2.20;;
75930;SDS011;64609;47.052;15.462;2023-04-03T01:41:17;4.03;;;2.42;;
75930;SDS011;64609;47.052;15.462;2023-04-03T01:43:45;3.38;;;2.00;;
75930;SDS011;64609;47.052;15.462;2023-04-03T01:46:11;3.40;;;2.17;;
75930;SDS011;64609;47.052;15.462;2023-04-03T01:48:37;2.75;;;2.15;;
75930;SDS011;64609;47.052;15.462;2023-04-03T01:51:03;3.13;;;2.08;;
75930;SDS011;64609;47.052;15.462;2023-04-03T01:53:29;2.72;;;2.10;;
75930;SDS011;64609;47.052;15.462;2023-04-03T01:55:54;2.50;;;2.00;;
75930;SDS011;64609;47.052;15.462;2023-04-03T01:58:20;5.53;;;1.98;;
75930;SDS011;64609;47.052;15.462;2023-04-03T02:00:46;2.50;;;1.90;;
75930;SDS011;64609;47.052;15.462;2023-04-03T02:03:11;3.03;;;2.10;;
75930;SDS011;64609;47.052;15.462;2023-04-03T02:05:37;2.40;;;2.10;;
75930;SDS011;64609;47.052;15.462;2023-04-03T02:08:03;2.47;;;2.10;;
75930;SDS011;64609;47.052;15.462;2023-04-03T02:10:28;3.33;;;2.10;;
75930;SDS011;64609;47.052;15.462;2023-04-03T02:12:54;2.70;;;2.30;;
75930;SDS011;64609;47.052;15.462;2023-04-03T02:15:20;4.57;;;2.90;;
75930;SDS011;64609;47.052;15.462;2023-04-03T02:17:46;2.58;;;2.17;;
75930;SDS011;64609;47.052;15.462;2023-04-03T02:20:11;2.28;;;2.05;;
75930;SDS011;64609;47.052;15.462;2023-04-03T02:22:37;3.33;;;2.10;;
75930;SDS011;64609;47.052;15.462;2023-04-03T02:25:03;4.22;;;2.30;;
75930;SDS011;64609;47.052;15.462;2023-04-03T02:27:29;3.25;;;2.28;;
75930;SDS011;64609;47.052;15.462;2023-04-03T02:29:56;2.33;;;2.13;;
75930;SDS011;64609;47.052;15.462;2023-04-03T02:32:22;2.63;;;2.03;;
75930;SDS011;64609;47.052;15.462;2023-04-03T02:34:48;3.58;;;2.67;;
75930;SDS011;64609;47.052;15.462;2023-04-03T02:37:13;3.92;;;2.72;;
75930;SDS011;64609;47.052;15.462;2023-04-03T02:39:39;3.60;;;2.60;;
75930;SDS011;64609;47.052;15.462;2023-04-03T02:42:05;3.95;;;2.58;;
75930;SDS011;64609;47.052;15.462;2023-04-03T02:44:31;3.08;;;2.53;;
75930;SDS011;64609;47.052;15.462;2023-04-03T02:46:56;4.20;;;2.58;;
75930;SDS011;64609;47.052;15.462;2023-04-03T02:49:22;9.65;;;3.22;;
75930;SDS011;64609;47.052;15.462;2023-04-03T02:51:47;4.68;;;3.10;;
75930;SDS011;64609;47.052;15.462;2023-04-03T02:54:13;3.88;;;2.70;;
75930;SDS011;64609;47.052;15.462;2023-04-03T02:56:39;3.67;;;2.60;;
75930;SDS011;64609;47.052;15.462;2023-04-03T02:59:04;6.47;;;2.65;;
75930;SDS011;64609;47.052;15.462;2023-04-03T03:01:31;5.47;;;2.75;;
75930;SDS011;64609;47.052;15.462;2023-04-03T03:03:58;3.25;;;2.13;;
75930;SDS011;64609;47.052;15.462;2023-04-03T03:06:25;5.50;;;2.28;;
75930;SDS011;64609;47.052;15.462;2023-04-03T03:08:50;3.60;;;2.50;;
75930;SDS011;64609;47.052;15.462;2023-04-03T03:11:16;5.07;;;2.40;;
75930;SDS011;64609;47.052;15.462;2023-04-03T03:13:42;2.65;;;2.10;;
75930;SDS011;64609;47.052;15.462;2023-04-03T03:16:07;2.33;;;2.00;;
75930;SDS011;64609;47.052;15.462;2023-04-03T03:18:33;3.00;;;2.42;;
75930;SDS011;64609;47.052;15.462;2023-04-03T03:21:00;4.22;;;2.45;;
75930;SDS011;64609;47.052;15.462;2023-04-03T03:23:27;3.85;;;2.58;;
75930;SDS011;64609;47.052;15.462;2023-04-03T03:25:55;4.82;;;2.47;;
75930;SDS011;64609;47.052;15.462;2023-04-03T03:28:22;4.05;;;2.78;;
75930;SDS011;64609;47.052;15.462;2023-04-03T03:30:47;5.93;;;2.92;;
75930;SDS011;64609;47.052;15.462;2023-04-03T03:33:13;4.05;;;2.38;;
75930;SDS011;64609;47.052;15.462;2023-04-03T03:35:39;2.47;;;1.90;;
75930;SDS011;64609;47.052;15.462;2023-04-03T03:38:05;2.67;;;1.90;;
75930;SDS011;64609;47.052;15.462;2023-04-03T03:40:32;2.05;;;1.75;;
75930;SDS011;64609;47.052;15.462;2023-04-03T03:42:57;4.47;;;1.92;;
75930;SDS011;64609;47.052;15.462;2023-04-03T03:45:23;4.40;;;1.73;;
75930;SDS011;64609;47.052;15.462;2023-04-03T03:47:48;2.45;;;1.70;;
75930;SDS011;64609;47.052;15.462;2023-04-03T03:50:14;4.07;;;1.80;;
75930;SDS011;64609;47.052;15.462;2023-04-03T03:52:40;3.20;;;2.10;;
75930;SDS011;64609;47.052;15.462;2023-04-03T03:55:05;2.58;;;1.85;;
75930;SDS011;64609;47.052;15.462;2023-04-03T03:57:32;3.70;;;2.80;;
75930;SDS011;64609;47.052;15.462;2023-04-03T03:59:57;6.63;;;4.57;;
75930;SDS011;64609;47.052;15.462;2023-04-03T04:02:23;4.18;;;3.30;;
75930;SDS011;64609;47.052;15.462;2023-04-03T04:04:49;9.50;;;5.57;;
75930;SDS011;64609;47.052;15.462;2023-04-03T04:07:14;7.10;;;4.88;;
75930;SDS011;64609;47.052;15.462;2023-04-03T04:09:40;12.02;;;6.88;;
75930;SDS011;64609;47.052;15.462;2023-04-03T04:12:05;16.10;;;8.52;;
75930;SDS011;64609;47.052;15.462;2023-04-03T04:14:31;12.23;;;6.28;;
75930;SDS011;64609;47.052;15.462;2023-04-03T04:16:57;8.13;;;4.70;;
75930;SDS011;64609;47.052;15.462;2023-04-03T04:19:22;7.07;;;4.03;;
75930;SDS011;64609;47.052;15.462;2023-04-03T04:21:48;7.07;;;3.67;;
75930;SDS011;64609;47.052;15.462;2023-04-03T04:24:14;13.35;;;5.72;;
75930;SDS011;64609;47.052;15.462;2023-04-03T04:26:40;7.47;;;3.97;;
75930;SDS011;64609;47.052;15.462;2023-04-03T04:29:05;10.85;;;5.40;;
75930;SDS011;64609;47.052;15.462;2023-04-03T04:31:31;10.90;;;4.32;;
75930;SDS011;64609;47.052;15.462;2023-04-03T04:33:57;10.63;;;4.38;;
75930;SDS011;64609;47.052;15.462;2023-04-03T04:36:22;9.23;;;4.55;;
75930;SDS011;64609;47.052;15.462;2023-04-03T04:38:48;6.68;;;3.90;;
75930;SDS011;64609;47.052;15.462;2023-04-03T04:41:17;7.53;;;3.67;;
75930;SDS011;64609;47.052;15.462;2023-04-03T04:43:46;7.38;;;3.58;;
75930;SDS011;64609;47.052;15.462;2023-04-03T04:46:11;3.67;;;2.60;;
75930;SDS011;64609;47.052;15.462;2023-04-03T04:48:37;3.45;;;2.10;;
75930;SDS011;64609;47.052;15.462;2023-04-03T04:51:03;7.85;;;2.88;;
75930;SDS011;64609;47.052;15.462;2023-04-03T04:53:29;4.45;;;2.00;;
75930;SDS011;64609;47.052;15.462;2023-04-03T04:55:55;3.35;;;2.20;;
75930;SDS011;64609;47.052;15.462;2023-04-03T04:58:20;4.43;;;2.13;;
75930;SDS011;64609;47.052;15.462;2023-04-03T05:00:46;5.13;;;2.15;;
75930;SDS011;64609;47.052;15.462;2023-04-03T05:03:12;2.40;;;1.77;;
75930;SDS011;64609;47.052;15.462;2023-04-03T05:05:38;5.97;;;1.98;;
75930;SDS011;64609;47.052;15.462;2023-04-03T05:08:04;2.22;;;1.60;;
75930;SDS011;64609;47.052;15.462;2023-04-03T05:10:30;2.20;;;1.70;;
75930;SDS011;64609;47.052;15.462;2023-04-03T05:12:56;2.67;;;1.85;;
75930;SDS011;64609;47.052;15.462;2023-04-03T05:15:22;3.08;;;1.70;;
75930;SDS011;64609;47.052;15.462;2023-04-03T05:17:48;2.15;;;1.48;;
75930;SDS011;64609;47.052;15.462;2023-04-03T05:20:14;1.45;;;1.35;;
75930;SDS011;64609;47.052;15.462;2023-04-03T05:22:39;1.58;;;1.48;;
75930;SDS011;64609;47.052;15.462;2023-04-03T05:25:05;2.67;;;1.80;;
75930;SDS011;64609;47.052;15.462;2023-04-03T05:27:31;2.58;;;1.50;;
75930;SDS011;64609;47.052;15.462;2023-04-03T05:29:57;2.85;;;1.48;;
75930;SDS011;64609;47.052;15.462;2023-04-03T05:32:23;2.35;;;1.50;;
75930;SDS011;64609;47.052;15.462;2023-04-03T05:34:51;2.70;;;1.50;;
75930;SDS011;64609;47.052;15.462;2023-04-03T05:37:17;1.95;;;1.60;;
75930;SDS011;64609;47.052;15.462;2023-04-03T05:39:43;6.60;;;1.60;;
75930;SDS011;64609;47.052;15.462;2023-04-03T05:42:09;4.53;;;1.48;;
75930;SDS011;64609;47.052;15.462;2023-04-03T05:44:36;2.08;;;1.60;;
75930;SDS011;64609;47.052;15.462;2023-04-03T05:47:02;2.47;;;1.30;;
75930;SDS011;64609;47.052;15.462;2023-04-03T05:49:28;3.20;;;1.90;;
75930;SDS011;64609;47.052;15.462;2023-04-03T05:51:53;3.33;;;1.58;;
75930;SDS011;64609;47.052;15.462;2023-04-03T05:54:26;2.55;;;1.60;;
75930;SDS011;64609;47.052;15.462;2023-04-03T05:56:53;1.77;;;1.50;;
75930;SDS011;64609;47.052;15.462;2023-04-03T05:59:19;6.20;;;1.50;;
75930;SDS011;64609;47.052;15.462;2023-04-03T06:01:46;3.55;;;1.48;;
75930;SDS011;64609;47.052;15.462;2023-04-03T06:04:12;2.60;;;1.60;;
75930;SDS011;64609;47.052;15.462;2023-04-03T06:06:48;2.70;;;1.50;;
75930;SDS011;64609;47.052;15.462;2023-04-03T06:09:20;2.63;;;1.70;;
75930;SDS011;64609;47.052;15.462;2023-04-03T06:11:47;3.20;;;1.40;;
75930;SDS011;64609;47.052;15.462;2023-04-03T06:14:12;1.92;;;1.40;;
75930;SDS011;64609;47.052;15.462;2023-04-03T06:16:38;2.22;;;1.40;;
75930;SDS011;64609;47.052;15.462;2023-04-03T06:19:05;3.40;;;1.40;;
75930;SDS011;64609;47.052;15.462;2023-04-03T06:21:32;2.83;;;1.40;;
75930;SDS011;64609;47.052;15.462;2023-04-03T06:23:58;6.15;;;1.40;;
75930;SDS011;64609;47.052;15.462;2023-04-03T06:26:23;2.45;;;1.40;;
75930;SDS011;64609;47.052;15.462;2023-04-03T06:28:49;4.07;;;1.30;;
75930;SDS011;64609;47.052;15.462;2023-04-03T06:31:14;2.00;;;1.30;;
75930;SDS011;64609;47.052;15.462;2023-04-03T06:33:41;2.92;;;1.48;;
75930;SDS011;64609;47.052;15.462;2023-04-03T06:36:07;2.17;;;1.40;;
75930;SDS011;64609;47.052;15.462;2023-04-03T06:38:35;2.38;;;1.60;;
75930;SDS011;64609;47.052;15.462;2023-04-03T06:41:00;3.38;;;1.30;;
75930;SDS011;64609;47.052;15.462;2023-04-03T06:43:26;2.08;;;1.30;;
75930;SDS011;64609;47.052;15.462;2023-04-03T06:45:52;4.43;;;1.70;;
75930;SDS011;64609;47.052;15.462;2023-04-03T06:48:17;4.65;;;1.67;;
75930;SDS011;64609;47.052;15.462;2023-04-03T06:50:43;1.30;;;1.20;;
75930;SDS011;64609;47.052;15.462;2023-04-03T06:53:09;5.05;;;1.50;;
75930;SDS011;64609;47.052;15.462;2023-04-03T06:55:35;2.53;;;1.30;;
75930;SDS011;64609;47.052;15.462;2023-04-03T06:58:02;2.17;;;1.30;;
75930;SDS011;64609;47.052;15.462;2023-04-03T07:00:28;5.18;;;1.60;;
75930;SDS011;64609;47.052;15.462;2023-04-03T07:02:55;3.10;;;2.03;;
75930;SDS011;64609;47.052;15.462;2023-04-03T07:05:22;3.33;;;1.60;;
75930;SDS011;64609;47.052;15.462;2023-04-03T07:07:48;2.05;;;1.17;;
75930;SDS011;64609;47.052;15.462;2023-04-03T07:10:15;1.77;;;1.35;;
75930;SDS011;64609;47.052;15.462;2023-04-03T07:12:41;1.33;;;1.20;;
75930;SDS011;64609;47.052;15.462;2023-04-03T07:15:07;1.60;;;1.30;;
75930;SDS011;64609;47.052;15.462;2023-04-03T07:17:34;1.80;;;1.40;;
75930;SDS011;64609;47.052;15.462;2023-04-03T07:20:00;3.22;;;1.52;;
75930;SDS011;64609;47.052;15.462;2023-04-03T07:22:26;2.35;;;1.60;;
75930;SDS011;64609;47.052;15.462;2023-04-03T07:24:53;1.58;;;1.45;;
75930;SDS011;64609;47.052;15.462;2023-04-03T07:27:18;2.70;;;1.85;;
75930;SDS011;64609;47.052;15.462;2023-04-03T07:29:44;3.15;;;1.38;;
75930;SDS011;64609;47.052;15.462;2023-04-03T07:32:10;2.60;;;1.48;;
75930;SDS011;64609;47.052;15.462;2023-04-03T07:34:36;3.03;;;1.85;;
75930;SDS011;64609;47.052;15.462;2023-04-03T07:37:01;5.05;;;1.65;;
75930;SDS011;64609;47.052;15.462;2023-04-03T07:39:27;2.53;;;1.80;;
75930;SDS011;64609;47.052;15.462;2023-04-03T07:41:54;4.13;;;2.40;;
75930;SDS011;64609;47.052;15.462;2023-04-03T07:44:22;2.15;;;1.48;;
75930;SDS011;64609;47.052;15.462;2023-04-03T07:46:48;2.05;;;1.50;;
75930;SDS011;64609;47.052;15.462;2023-04-03T07:49:13;2.15;;;1.40;;
75930;SDS011;64609;47.052;15.462;2023-04-03T07:51:39;1.65;;;1.30;;
75930;SDS011;64609;47.052;15.462;2023-04-03T07:54:05;2.95;;;1.67;;
75930;SDS011;64609;47.052;15.462;2023-04-03T07:56:31;5.60;;;1.80;;
75930;SDS011;64609;47.052;15.462;2023-04-03T07:58:57;2.00;;;1.50;;
75930;SDS011;64609;47.052;15.462;2023-04-03T08:01:23;2.13;;;1.27;;
75930;SDS011;64609;47.052;15.462;2023-04-03T08:03:48;1.65;;;1.20;;
75930;SDS011;64609;47.052;15.462;2023-04-03T08:06:14;1.73;;;1.17;;
75930;SDS011;64609;47.052;15.462;2023-04-03T08:08:40;3.75;;;1.63;;
75930;SDS011;64609;47.052;15.462;2023-04-03T08:11:06;1.73;;;1.20;;
75930;SDS011;64609;47.052;15.462;2023-04-03T08:13:33;2.63;;;1.23;;
75930;SDS011;64609;47.052;15.462;2023-04-03T08:16:09;2.88;;;1.45;;
75930;SDS011;64609;47.052;15.462;2023-04-03T08:18:36;1.77;;;1.30;;
75930;SDS011;64609;47.052;15.462;2023-04-03T08:21:05;3.33;;;1.35;;
75930;SDS011;64609;47.052;15.462;2023-04-03T08:23:32;2.97;;;1.27;;
75930;SDS011;64609;47.052;15.462;2023-04-03T08:25:57;3.20;;;1.20;;
75930;SDS011;64609;47.052;15.462;2023-04-03T08:28:23;1.10;;;1.10;;
75930;SDS011;64609;47.052;15.462;2023-04-03T08:30:49;1.40;;;1.30;;
75930;SDS011;64609;47.052;15.462;2023-04-03T08:33:15;1.52;;;1.10;;
75930;SDS011;64609;47.052;15.462;2023-04-03T08:35:41;1.75;;;1.23;;
75930;SDS011;64609;47.052;15.462;2023-04-03T08:38:08;2.42;;;1.17;;
75930;SDS011;64609;47.052;15.462;2023-04-03T08:40:34;2.00;;;1.20;;
75930;SDS011;64609;47.052;15.462;2023-04-03T08:46:16;1.90;;;1.27;;
75930;SDS011;64609;47.052;15.462;2023-04-03T08:48:46;1.65;;;1.23;;
75930;SDS011;64609;47.052;15.462;2023-04-03T08:51:15;1.48;;;1.00;;
75930;SDS011;64609;47.052;15.462;2023-04-03T08:53:45;1.45;;;1.20;;
75930;SDS011;64609;47.052;15.462;2023-04-03T08:56:21;2.17;;;1.25;;
75930;SDS011;64609;47.052;15.462;2023-04-03T08:58:55;1.20;;;1.10;;
75930;SDS011;64609;47.052;15.462;2023-04-03T09:01:25;1.23;;;1.10;;
75930;SDS011;64609;47.052;15.462;2023-04-03T09:03:54;1.80;;;1.20;;
75930;SDS011;64609;47.052;15.462;2023-04-03T09:06:23;2.30;;;1.17;;
75930;SDS011;64609;47.052;15.462;2023-04-03T09:14:16;2.85;;;1.08;;
75930;SDS011;64609;47.052;15.462;2023-04-03T09:16:52;2.25;;;1.15;;
75930;SDS011;64609;47.052;15.462;2023-04-03T09:21:55;1.73;;;1.10;;
75930;SDS011;64609;47.052;15.462;2023-04-03T09:24:22;1.85;;;1.20;;
75930;SDS011;64609;47.052;15.462;2023-04-03T09:26:56;1.08;;;0.98;;
75930;SDS011;64609;47.052;15.462;2023-04-03T09:29:29;1.95;;;1.20;;
75930;SDS011;64609;47.052;15.462;2023-04-03T09:32:02;1.55;;;1.10;;
75930;SDS011;64609;47.052;15.462;2023-04-03T09:34:37;1.10;;;1.00;;
75930;SDS011;64609;47.052;15.462;2023-04-03T09:37:06;1.60;;;1.20;;
75930;SDS011;64609;47.052;15.462;2023-04-03T09:39:32;2.05;;;1.33;;
75930;SDS011;64609;47.052;15.462;2023-04-03T09:42:19;3.63;;;1.38;;
75930;SDS011;64609;47.052;15.462;2023-04-03T09:44:54;2.30;;;1.00;;
75930;SDS011;64609;47.052;15.462;2023-04-03T09:47:32;1.63;;;1.23;;
75930;SDS011;64609;47.052;15.462;2023-04-03T09:50:18;1.77;;;1.27;;
75930;SDS011;64609;47.052;15.462;2023-04-03T09:52:49;1.13;;;0.95;;
75930;SDS011;64609;47.052;15.462;2023-04-03T09:55:23;1.33;;;1.00;;
75930;SDS011;64609;47.052;15.462;2023-04-03T09:57:54;1.30;;;1.20;;
75930;SDS011;64609;47.052;15.462;2023-04-03T10:00:27;32.42;;;5.10;;
75930;SDS011;64609;47.052;15.462;2023-04-03T10:03:01;2.60;;;1.30;;
75930;SDS011;64609;47.052;15.462;2023-04-03T10:05:35;1.30;;;1.20;;
75930;SDS011;64609;47.052;15.462;2023-04-03T10:10:41;1.77;;;1.40;;
75930;SDS011;64609;47.052;15.462;2023-04-03T10:13:11;5.57;;;1.40;;
75930;SDS011;64609;47.052;15.462;2023-04-03T10:15:43;1.73;;;1.17;;
75930;SDS011;64609;47.052;15.462;2023-04-03T10:18:20;2.88;;;1.30;;
75930;SDS011;64609;47.052;15.462;2023-04-03T10:20:51;1.90;;;1.30;;
75930;SDS011;64609;47.052;15.462;2023-04-03T10:31:31;2.17;;;1.30;;
75930;SDS011;64609;47.052;15.462;2023-04-03T10:40:50;1.95;;;1.20;;
75930;SDS011;64609;47.052;15.462;2023-04-03T10:50:54;1.52;;;1.08;;
75930;SDS011;64609;47.052;15.462;2023-04-03T10:59:41;10.55;;;2.50;;
75930;SDS011;64609;47.052;15.462;2023-04-03T11:01:44;5.55;;;2.63;;
75930;SDS011;64609;47.052;15.462;2023-04-03T11:04:13;4.90;;;1.83;;
75930;SDS011;64609;47.052;15.462;2023-04-03T11:06:45;1.20;;;1.08;;
75930;SDS011;64609;47.052;15.462;2023-04-03T11:09:23;2.70;;;1.30;;
75930;SDS011;64609;47.052;15.462;2023-04-03T11:15:03;2.08;;;1.10;;
75930;SDS011;64609;47.052;15.462;2023-04-03T11:17:35;2.97;;;1.20;;
75930;SDS011;64609;47.052;15.462;2023-04-03T11:23:00;1.33;;;1.00;;
75930;SDS011;64609;47.052;15.462;2023-04-03T11:25:26;1.90;;;1.10;;
75930;SDS011;64609;47.052;15.462;2023-04-03T11:35:31;1.23;;;1.10;;
75930;SDS011;64609;47.052;15.462;2023-04-03T11:37:58;1.70;;;1.05;;
75930;SDS011;64609;47.052;15.462;2023-04-03T11:40:34;1.38;;;1.10;;
75930;SDS011;64609;47.052;15.462;2023-04-03T11:43:16;1.90;;;1.20;;
75930;SDS011;64609;47.052;15.462;2023-04-03T11:45:55;2.15;;;1.45;;
75930;SDS011;64609;47.052;15.462;2023-04-03T11:50:59;1.30;;;1.20;;
75930;SDS011;64609;47.052;15.462;2023-04-03T11:53:37;1.35;;;1.10;;
75930;SDS011;64609;47.052;15.462;2023-04-03T12:10:41;2.05;;;1.15;;
75930;SDS011;64609;47.052;15.462;2023-04-03T12:13:13;1.63;;;1.20;;
75930;SDS011;64609;47.052;15.462;2023-04-03T12:21:03;2.83;;;1.40;;
75930;SDS011;64609;47.052;15.462;2023-04-03T12:23:33;2.05;;;1.40;;
75930;SDS011;64609;47.052;15.462;2023-04-03T12:26:01;2.65;;;1.45;;
75930;SDS011;64609;47.052;15.462;2023-04-03T12:28:44;2.17;;;1.40;;
75930;SDS011;64609;47.052;15.462;2023-04-03T12:31:11;3.75;;;1.55;;
75930;SDS011;64609;47.052;15.462;2023-04-03T12:36:13;1.63;;;1.20;;
75930;SDS011;64609;47.052;15.462;2023-04-03T12:41:31;1.88;;;1.30;;
75930;SDS011;64609;47.052;15.462;2023-04-03T12:47:31;1.45;;;1.33;;
75930;SDS011;64609;47.052;15.462;2023-04-03T12:50:01;1.55;;;1.30;;
75930;SDS011;64609;47.052;15.462;2023-04-03T12:52:33;2.20;;;1.30;;
75930;SDS011;64609;47.052;15.462;2023-04-03T12:55:07;1.83;;;1.30;;
75930;SDS011;64609;47.052;15.462;2023-04-03T12:57:40;2.47;;;1.40;;
75930;SDS011;64609;47.052;15.462;2023-04-03T13:02:52;1.60;;;1.30;;
75930;SDS011;64609;47.052;15.462;2023-04-03T13:05:18;2.08;;;1.45;;
75930;SDS011;64609;47.052;15.462;2023-04-03T13:08:05;1.95;;;1.20;;
75930;SDS011;64609;47.052;15.462;2023-04-03T13:10:42;2.60;;;1.42;;
75930;SDS011;64609;47.052;15.462;2023-04-03T13:13:15;2.78;;;1.45;;
75930;SDS011;64609;47.052;15.462;2023-04-03T13:15:43;1.85;;;1.40;;
75930;SDS011;64609;47.052;15.462;2023-04-03T13:18:24;3.80;;;1.25;;
75930;SDS011;64609;47.052;15.462;2023-04-03T13:20:53;4.07;;;3.03;;
75930;SDS011;64609;47.052;15.462;2023-04-03T13:23:30;5.20;;;3.13;;
75930;SDS011;64609;47.052;15.462;2023-04-03T13:25:58;4.35;;;2.80;;
75930;SDS011;64609;47.052;15.462;2023-04-03T13:28:28;3.50;;;2.38;;
75930;SDS011;64609;47.052;15.462;2023-04-03T13:30:59;3.40;;;1.50;;
75930;SDS011;64609;47.052;15.462;2023-04-03T13:33:27;1.70;;;1.10;;
75930;SDS011;64609;47.052;15.462;2023-04-03T13:35:57;1.75;;;1.35;;
75930;SDS011;64609;47.052;15.462;2023-04-03T13:38:30;1.58;;;1.15;;
75930;SDS011;64609;47.052;15.462;2023-04-03T13:40:59;2.30;;;1.20;;
75930;SDS011;64609;47.052;15.462;2023-04-03T13:43:29;2.90;;;1.60;;
75930;SDS011;64609;47.052;15.462;2023-04-03T13:46:00;2.15;;;1.40;;
75930;SDS011;64609;47.052;15.462;2023-04-03T13:48:26;2.25;;;1.50;;
75930;SDS011;64609;47.052;15.462;2023-04-03T13:51:00;3.85;;;1.50;;
75930;SDS011;64609;47.052;15.462;2023-04-03T13:53:32;4.93;;;1.30;;
75930;SDS011;64609;47.052;15.462;2023-04-03T13:56:21;2.22;;;1.40;;
75930;SDS011;64609;47.052;15.462;2023-04-03T13:58:56;2.30;;;1.60;;
75930;SDS011;64609;47.052;15.462;2023-04-03T14:01:23;2.00;;;1.45;;
75930;SDS011;64609;47.052;15.462;2023-04-03T14:03:59;1.40;;;1.10;;
75930;SDS011;64609;47.052;15.462;2023-04-03T14:06:34;2.72;;;1.33;;
75930;SDS011;64609;47.052;15.462;2023-04-03T14:09:00;2.25;;;1.30;;
75930;SDS011;64609;47.052;15.462;2023-04-03T14:11:28;2.15;;;1.30;;
75930;SDS011;64609;47.052;15.462;2023-04-03T14:13:55;1.48;;;1.30;;
75930;SDS011;64609;47.052;15.462;2023-04-03T14:16:26;2.58;;;1.70;;
75930;SDS011;64609;47.052;15.462;2023-04-03T14:18:54;2.27;;;1.60;;
75930;SDS011;64609;47.052;15.462;2023-04-03T14:21:20;1.67;;;1.33;;
75930;SDS011;64609;47.052;15.462;2023-04-03T14:23:46;1.98;;;1.40;;
75930;SDS011;64609;47.052;15.462;2023-04-03T14:26:15;4.85;;;1.60;;
75930;SDS011;64609;47.052;15.462;2023-04-03T14:28:44;1.67;;;1.27;;
75930;SDS011;64609;47.052;15.462;2023-04-03T14:31:11;2.13;;;1.50;;
75930;SDS011;64609;47.052;15.462;2023-04-03T14:33:37;2.75;;;1.70;;
75930;SDS011;64609;47.052;15.462;2023-04-03T14:36:16;2.20;;;1.40;;
75930;SDS011;64609;47.052;15.462;2023-04-03T14:38:46;3.22;;;1.80;;
75930;SDS011;64609;47.052;15.462;2023-04-03T14:41:13;5.68;;;1.65;;
75930;SDS011;64609;47.052;15.462;2023-04-03T14:43:41;3.30;;;1.70;;
75930;SDS011;64609;47.052;15.462;2023-04-03T14:46:15;2.47;;;1.40;;
75930;SDS011;64609;47.052;15.462;2023-04-03T14:49:02;2.35;;;1.40;;
75930;SDS011;64609;47.052;15.462;2023-04-03T14:51:32;2.67;;;1.40;;
75930;SDS011;64609;47.052;15.462;2023-04-03T14:53:58;4.35;;;1.80;;
75930;SDS011;64609;47.052;15.462;2023-04-03T14:56:25;3.03;;;1.90;;
75930;SDS011;64609;47.052;15.462;2023-04-03T14:58:59;4.53;;;1.55;;
75930;SDS011;64609;47.052;15.462;2023-04-03T15:01:27;3.05;;;1.40;;
75930;SDS011;64609;47.052;15.462;2023-04-03T15:03:53;4.30;;;1.60;;
75930;SDS011;64609;47.052;15.462;2023-04-03T15:06:19;3.45;;;1.80;;
75930;SDS011;64609;47.052;15.462;2023-04-03T15:08:46;2.58;;;1.58;;
75930;SDS011;64609;47.052;15.462;2023-04-03T15:11:12;5.43;;;1.80;;
75930;SDS011;64609;47.052;15.462;2023-04-03T15:13:39;2.08;;;1.50;;
75930;SDS011;64609;47.052;15.462;2023-04-03T15:16:05;2.85;;;1.63;;
75930;SDS011;64609;47.052;15.462;2023-04-03T15:18:37;5.75;;;2.53;;
75930;SDS011;64609;47.052;15.462;2023-04-03T15:21:03;2.67;;;1.70;;
75930;SDS011;64609;47.052;15.462;2023-04-03T15:23:30;2.38;;;1.52;;
75930;SDS011;64609;47.052;15.462;2023-04-03T15:25:55;1.63;;;1.50;;
75930;SDS011;64609;47.052;15.462;2023-04-03T15:28:23;4.47;;;2.15;;
75930;SDS011;64609;47.052;15.462;2023-04-03T15:31:04;3.33;;;1.40;;
75930;SDS011;64609;47.052;15.462;2023-04-03T15:33:31;5.38;;;1.58;;
75930;SDS011;64609;47.052;15.462;2023-04-03T15:35:57;5.00;;;1.70;;
75930;SDS011;64609;47.052;15.462;2023-04-03T15:38:23;2.33;;;1.67;;
75930;SDS011;64609;47.052;15.462;2023-04-03T15:40:49;3.47;;;1.70;;
75930;SDS011;64609;47.052;15.462;2023-04-03T15:43:15;3.20;;;1.90;;
75930;SDS011;64609;47.052;15.462;2023-04-03T15:45:41;5.35;;;1.60;;
75930;SDS011;64609;47.052;15.462;2023-04-03T15:48:07;2.55;;;1.50;;
75930;SDS011;64609;47.052;15.462;2023-04-03T15:50:33;3.47;;;1.80;;
75930;SDS011;64609;47.052;15.462;2023-04-03T15:53:00;2.47;;;1.50;;
75930;SDS011;64609;47.052;15.462;2023-04-03T15:55:28;4.00;;;1.50;;
75930;SDS011;64609;47.052;15.462;2023-04-03T15:57:55;2.65;;;1.60;;
75930;SDS011;64609;47.052;15.462;2023-04-03T16:00:22;5.65;;;1.58;;
75930;SDS011;64609;47.052;15.462;2023-04-03T16:02:49;5.25;;;1.90;;
75930;SDS011;64609;47.052;15.462;2023-04-03T16:05:18;2.08;;;1.60;;
75930;SDS011;64609;47.052;15.462;2023-04-03T16:07:44;2.67;;;1.50;;
75930;SDS011;64609;47.052;15.462;2023-04-03T16:10:11;3.47;;;1.67;;
75930;SDS011;64609;47.052;15.462;2023-04-03T16:12:38;2.65;;;1.90;;
75930;SDS011;64609;47.052;15.462;2023-04-03T16:15:04;7.60;;;1.70;;